createdAt,value
2023-05-16T00:02:23.453Z,7.46
2023-05-16T00:04:53.390Z,7.33
2023-05-16T00:07:21.584Z,7.37
2023-05-16T00:09:49.568Z,7.30
2023-05-16T00:12:19.868Z,7.29
2023-05-16T00:14:48.144Z,7.16
2023-05-16T00:17:17.691Z,7.16
2023-05-16T00:19:47.626Z,7.05
2023-05-16T00:22:20.754Z,7.14
2023-05-16T00:24:50.143Z,7.15
2023-05-16T00:27:18.365Z,7.13
2023-05-16T00:29:46.444Z,7.12
2023-05-16T00:32:14.658Z,6.93
2023-05-16T00:34:44.450Z,6.87
2023-05-16T00:37:14.239Z,6.81
2023-05-16T00:39:43.728Z,6.61
2023-05-16T00:42:11.694Z,6.54
2023-05-16T00:44:41.954Z,6.45
2023-05-16T00:47:09.985Z,6.63
2023-05-16T00:49:39.288Z,6.49
2023-05-16T00:52:11.621Z,6.52
2023-05-16T00:54:42.326Z,6.46
2023-05-16T00:57:11.875Z,6.51
2023-05-16T00:59:40.218Z,6.47
2023-05-16T01:02:10.312Z,6.49
2023-05-16T01:04:39.283Z,6.38
2023-05-16T01:07:07.782Z,6.39
2023-05-16T01:09:43.515Z,6.33
2023-05-16T01:12:20.701Z,6.13
2023-05-16T01:14:57.614Z,6.08
2023-05-16T01:17:36.533Z,6.01
2023-05-16T01:20:15.293Z,6.20
2023-05-16T01:22:57.828Z,6.03
2023-05-16T01:25:35.215Z,5.84
2023-05-16T01:28:07.735Z,5.78
2023-05-16T01:30:39.535Z,5.67
2023-05-16T01:33:10.184Z,5.86
2023-05-16T01:35:45.133Z,5.74
2023-05-16T01:38:19.805Z,5.79
2023-05-16T01:40:55.124Z,5.77
2023-05-16T01:43:31.852Z,5.76
2023-05-16T01:46:09.458Z,5.54
2023-05-16T01:48:44.314Z,5.67
2023-05-16T01:51:14.148Z,5.54
2023-05-16T01:53:45.458Z,5.34
2023-05-16T01:56:17.850Z,5.36
2023-05-16T01:58:51.373Z,5.30
2023-05-16T02:01:22.088Z,5.35
2023-05-16T02:03:52.261Z,5.43
2023-05-16T02:06:20.523Z,5.36
2023-05-16T02:08:49.470Z,5.44
2023-05-16T02:11:17.533Z,5.50
2023-05-16T02:13:46.752Z,5.80
2023-05-16T02:16:16.307Z,6.00
2023-05-16T02:18:46.005Z,6.07
2023-05-16T02:21:15.515Z,6.22
2023-05-16T02:23:44.506Z,6.21
2023-05-16T02:26:12.572Z,6.22
2023-05-16T02:28:41.058Z,6.24
2023-05-16T02:31:09.207Z,6.12
2023-05-16T02:33:40.371Z,5.87
2023-05-16T02:36:09.125Z,5.95
2023-05-16T02:38:37.349Z,5.98
2023-05-16T02:41:06.430Z,6.01
2023-05-16T02:43:35.035Z,6.27
2023-05-16T02:46:06.021Z,6.39
2023-05-16T02:48:34.323Z,6.46
2023-05-16T02:51:05.105Z,6.46
2023-05-16T02:53:34.923Z,6.45
2023-05-16T02:56:07.269Z,6.40
2023-05-16T02:58:35.473Z,6.46
2023-05-16T03:01:06.655Z,6.30
2023-05-16T03:03:40.947Z,6.25
2023-05-16T03:06:15.878Z,6.13
2023-05-16T03:08:45.960Z,6.14
2023-05-16T03:11:14.293Z,5.87
2023-05-16T03:13:43.778Z,6.05
2023-05-16T03:16:12.497Z,5.81
2023-05-16T03:18:44.665Z,5.75
2023-05-16T03:21:18.464Z,5.57
2023-05-16T03:23:48.276Z,5.67
2023-05-16T03:26:16.357Z,5.40
2023-05-16T03:28:45.708Z,5.62
2023-05-16T03:31:13.868Z,5.54
2023-05-16T03:33:48.674Z,5.47
2023-05-16T03:36:24.778Z,5.48
2023-05-16T03:38:58.018Z,5.56
2023-05-16T03:41:26.632Z,5.70
2023-05-16T03:43:55.664Z,5.29
2023-05-16T03:46:24.154Z,5.22
2023-05-16T03:48:53.060Z,5.30
2023-05-16T03:51:23.700Z,5.17
2023-05-16T03:53:51.824Z,5.17
2023-05-16T03:56:20.142Z,5.51
2023-05-16T03:58:48.664Z,5.57
2023-05-16T04:01:16.895Z,5.74
2023-05-16T04:03:45.062Z,5.75
2023-05-16T04:06:13.354Z,5.76
2023-05-16T04:08:47.038Z,5.74
2023-05-16T04:11:17.723Z,5.84
2023-05-16T04:13:52.496Z,5.79
2023-05-16T04:16:23.234Z,5.79
2023-05-16T04:18:52.479Z,5.77
2023-05-16T04:21:26.775Z,5.57
2023-05-16T04:24:08.829Z,5.67
2023-05-16T04:26:43.117Z,5.47
2023-05-16T04:29:12.150Z,5.73
2023-05-16T04:31:44.422Z,5.91
2023-05-16T04:34:15.820Z,5.85
2023-05-16T04:36:48.170Z,5.92
2023-05-16T04:39:29.354Z,6.04
2023-05-16T04:42:10.134Z,6.10
2023-05-16T04:44:39.445Z,6.19
2023-05-16T04:47:14.182Z,6.40
2023-05-16T04:49:46.615Z,6.10
2023-05-16T04:52:29.143Z,6.26
2023-05-16T04:55:23.748Z,6.15
2023-05-16T04:58:21.855Z,6.49
2023-05-16T05:01:17.416Z,6.38
2023-05-16T05:04:43.291Z,6.69
2023-05-16T05:07:32.471Z,6.66
2023-05-16T05:10:18.050Z,6.66
2023-05-16T05:12:52.127Z,6.39
2023-05-16T05:15:24.967Z,6.50
2023-05-16T05:18:04.551Z,6.68
2023-05-16T05:20:46.808Z,6.69
2023-05-16T05:23:30.457Z,6.98
2023-05-16T05:26:06.705Z,7.02
2023-05-16T05:29:04.554Z,6.94
2023-05-16T05:31:37.780Z,7.08
2023-05-16T05:34:08.079Z,6.94
2023-05-16T05:36:42.283Z,7.11
2023-05-16T05:39:13.231Z,7.21
2023-05-16T05:41:47.058Z,7.49
2023-05-16T05:44:19.416Z,7.61
2023-05-16T05:46:49.633Z,7.90
2023-05-16T05:49:20.579Z,7.97
2023-05-16T05:51:52.212Z,8.20
2023-05-16T05:54:21.477Z,8.37
2023-05-16T05:56:51.251Z,8.53
2023-05-16T05:59:20.035Z,8.72
2023-05-16T06:01:55.304Z,8.80
2023-05-16T06:04:25.981Z,9.12
2023-05-16T06:06:54.160Z,9.19
2023-05-16T06:09:23.452Z,9.59
2023-05-16T06:11:53.052Z,9.89
2023-05-16T06:14:21.657Z,10.22
2023-05-16T06:16:49.879Z,10.68
2023-05-16T06:19:18.737Z,11.24
2023-05-16T06:21:48.062Z,11.66
2023-05-16T06:24:16.606Z,11.43
2023-05-16T06:26:46.287Z,11.62
2023-05-16T06:29:16.154Z,11.69
2023-05-16T06:31:44.477Z,11.99
2023-05-16T06:34:12.792Z,11.90
2023-05-16T06:36:41.263Z,12.05
2023-05-16T06:39:13.677Z,11.66
2023-05-16T06:41:44.446Z,11.87
2023-05-16T06:44:13.622Z,12.27
2023-05-16T06:46:43.520Z,11.30
2023-05-16T06:49:12.009Z,11.64
2023-05-16T06:51:40.662Z,11.10
2023-05-16T06:54:10.315Z,10.71
2023-05-16T06:56:39.542Z,10.47
2023-05-16T07:02:32.975Z,12.27
2023-05-16T07:05:02.221Z,11.99
2023-05-16T07:07:31.820Z,13.24
2023-05-16T07:10:01.003Z,13.86
2023-05-16T07:12:32.738Z,13.18
2023-05-16T07:15:14.288Z,13.07
2023-05-16T07:17:47.074Z,13.61
2023-05-16T07:20:20.262Z,14.21
2023-05-16T07:22:48.490Z,13.24
2023-05-16T07:25:17.443Z,13.08
2023-05-16T07:27:50.702Z,10.97
2023-05-16T07:30:21.139Z,10.94
2023-05-16T07:32:52.796Z,12.19
2023-05-16T07:35:21.440Z,13.52
2023-05-16T07:37:50.810Z,12.42
2023-05-16T07:43:12.882Z,12.67
2023-05-16T07:45:43.727Z,13.09
2023-05-16T07:48:14.261Z,14.22
2023-05-16T07:50:43.023Z,13.29
2023-05-16T07:53:12.391Z,13.84
2023-05-16T07:55:41.649Z,13.98
2023-05-16T07:58:09.756Z,13.47
2023-05-16T08:00:45.474Z,12.81
2023-05-16T08:03:16.165Z,14.39
2023-05-16T08:05:44.368Z,14.03
2023-05-16T08:08:18.722Z,14.74
2023-05-16T08:10:47.676Z,15.46
2023-05-16T08:13:16.099Z,15.32
2023-05-16T08:15:44.697Z,14.60
2023-05-16T08:18:17.967Z,13.08
2023-05-16T08:20:47.956Z,12.77
2023-05-16T08:23:18.566Z,13.72
2023-05-16T08:25:46.476Z,15.05
2023-05-16T08:28:16.218Z,16.25
2023-05-16T08:30:48.006Z,16.05
2023-05-16T08:33:24.700Z,16.31
2023-05-16T08:35:53.127Z,16.05
2023-05-16T08:38:21.510Z,15.07
2023-05-16T08:40:50.028Z,14.76
2023-05-16T08:43:18.746Z,15.13
2023-05-16T08:45:47.269Z,15.73
2023-05-16T08:48:17.939Z,16.61
2023-05-16T08:50:48.367Z,15.32
2023-05-16T08:53:26.654Z,14.65
2023-05-16T08:55:59.793Z,13.56
2023-05-16T08:58:30.260Z,15.24
2023-05-16T09:00:59.076Z,15.35
2023-05-16T09:03:29.323Z,15.46
2023-05-16T09:06:01.388Z,15.89
2023-05-16T09:08:36.605Z,14.12
2023-05-16T09:11:07.546Z,13.61
2023-05-16T09:13:35.647Z,13.81
2023-05-16T09:16:10.502Z,14.61
2023-05-16T09:18:54.055Z,15.32
2023-05-16T09:21:28.493Z,17.20
2023-05-16T09:23:56.873Z,16.42
2023-05-16T09:26:25.697Z,16.05
2023-05-16T09:29:02.418Z,15.00
2023-05-16T09:31:38.393Z,15.52
2023-05-16T09:34:12.188Z,15.08
2023-05-16T09:36:52.483Z,15.92
2023-05-16T09:39:21.527Z,16.10
2023-05-16T09:41:53.714Z,15.67
2023-05-16T09:44:21.878Z,16.02
2023-05-16T09:46:51.275Z,16.38
2023-05-16T09:49:20.176Z,14.73
2023-05-16T09:51:52.375Z,13.10
2023-05-16T09:54:36.194Z,14.34
2023-05-16T09:57:27.180Z,14.89
2023-05-16T10:00:42.062Z,15.96
2023-05-16T10:03:18.425Z,15.65
2023-05-16T10:05:55.344Z,17.14
2023-05-16T10:08:29.098Z,17.07
2023-05-16T10:11:08.694Z,16.83
2023-05-16T10:14:00.236Z,16.91
2023-05-16T10:16:37.497Z,17.12
2023-05-16T10:19:07.015Z,16.31
2023-05-16T10:21:39.921Z,15.21
2023-05-16T10:24:13.009Z,14.63
2023-05-16T10:26:42.937Z,14.13
2023-05-16T10:29:12.280Z,13.65
2023-05-16T10:31:42.168Z,13.71
2023-05-16T10:34:11.100Z,13.89
2023-05-16T10:36:40.865Z,14.24
2023-05-16T10:39:22.928Z,13.91
2023-05-16T10:41:52.159Z,15.25
2023-05-16T10:44:21.717Z,14.93
2023-05-16T10:47:01.765Z,15.83
2023-05-16T10:49:32.239Z,15.99
2023-05-16T10:52:11.896Z,15.94
2023-05-16T10:54:43.171Z,16.56
2023-05-16T10:57:15.344Z,17.30
2023-05-16T10:59:46.051Z,16.46
2023-05-16T11:02:35.148Z,15.54
2023-05-16T11:05:04.296Z,15.88
2023-05-16T11:07:38.448Z,15.80
2023-05-16T11:10:16.258Z,15.04
2023-05-16T11:12:46.309Z,16.72
2023-05-16T11:15:26.457Z,16.06
2023-05-16T11:18:07.018Z,15.81
2023-05-16T11:20:37.074Z,16.00
2023-05-16T11:23:22.292Z,17.09
2023-05-16T11:26:00.462Z,17.05
2023-05-16T11:28:30.323Z,15.41
2023-05-16T11:31:07.454Z,15.74
2023-05-16T11:33:35.728Z,17.25
2023-05-16T11:36:15.241Z,17.53
2023-05-16T11:38:44.719Z,18.58
2023-05-16T11:41:16.624Z,18.34
2023-05-16T11:43:49.116Z,18.02
2023-05-16T11:46:18.164Z,17.32
2023-05-16T11:48:53.200Z,15.95
2023-05-16T11:51:21.636Z,15.05
2023-05-16T11:53:51.121Z,14.93
2023-05-16T11:56:22.388Z,14.23
2023-05-16T11:58:50.865Z,14.34
2023-05-16T12:01:19.305Z,13.84
2023-05-16T12:03:56.048Z,14.20
2023-05-16T12:06:31.570Z,14.27
2023-05-16T12:09:01.777Z,14.91
2023-05-16T12:11:33.393Z,15.05
2023-05-16T12:14:03.097Z,16.67
2023-05-16T12:16:31.906Z,17.77
2023-05-16T12:19:04.720Z,16.11
2023-05-16T12:21:40.048Z,14.98
2023-05-16T12:24:12.169Z,13.62
2023-05-16T12:26:43.667Z,13.31
2023-05-16T12:29:12.530Z,12.80
2023-05-16T12:31:42.173Z,14.01
2023-05-16T12:34:18.233Z,14.30
2023-05-16T12:36:46.271Z,15.59
2023-05-16T12:39:20.470Z,15.87
2023-05-16T12:41:49.979Z,16.08
2023-05-16T12:44:19.923Z,18.18
2023-05-16T12:46:51.711Z,17.72
2023-05-16T12:49:22.164Z,17.09
2023-05-16T12:51:51.600Z,17.40
2023-05-16T12:54:23.319Z,17.61
2023-05-16T12:56:52.870Z,17.51
2023-05-16T12:59:21.939Z,16.11
2023-05-16T13:01:50.526Z,15.60
2023-05-16T13:04:20.262Z,14.59
2023-05-16T13:06:59.352Z,14.22
2023-05-16T13:09:32.441Z,13.90
2023-05-16T13:12:04.351Z,16.30
2023-05-16T13:14:32.786Z,16.81
2023-05-16T13:17:00.933Z,16.33
2023-05-16T13:19:31.640Z,14.60
2023-05-16T13:21:59.974Z,14.09
2023-05-16T13:24:27.962Z,13.83
2023-05-16T13:26:56.088Z,13.99
2023-05-16T13:29:27.956Z,13.69
2023-05-16T13:31:56.043Z,13.96
2023-05-16T13:34:24.164Z,14.56
2023-05-16T13:36:54.436Z,14.88
2023-05-16T13:39:23.935Z,15.92
2023-05-16T13:41:52.096Z,16.84
2023-05-16T13:44:22.528Z,16.68
2023-05-16T13:46:52.048Z,16.30
2023-05-16T13:49:22.634Z,15.92
2023-05-16T13:51:52.091Z,14.95
2023-05-16T13:54:21.818Z,14.89
2023-05-16T13:56:50.962Z,16.09
2023-05-16T13:59:31.916Z,15.24
2023-05-16T14:02:09.942Z,14.75
2023-05-16T14:04:40.068Z,13.96
2023-05-16T14:07:09.547Z,13.36
2023-05-16T14:09:40.190Z,12.94
2023-05-16T14:12:09.164Z,11.22
2023-05-16T14:14:37.697Z,10.47
2023-05-16T14:17:06.819Z,10.49
2023-05-16T14:19:36.729Z,10.51
2023-05-16T14:22:04.956Z,10.09
2023-05-16T14:24:34.948Z,10.34
2023-05-16T14:27:03.468Z,10.97
2023-05-16T14:29:34.144Z,12.40
2023-05-16T14:32:02.324Z,14.01
2023-05-16T14:34:31.559Z,14.78
2023-05-16T14:37:01.699Z,13.66
2023-05-16T14:39:31.594Z,12.12
2023-05-16T14:42:01.984Z,11.91
2023-05-16T14:44:30.008Z,11.41
2023-05-16T14:46:58.205Z,11.50
2023-05-16T14:49:27.162Z,11.40
2023-05-16T14:52:13.249Z,11.40
2023-05-16T14:54:41.914Z,11.42
2023-05-16T15:02:40.050Z,11.24
2023-05-16T15:05:17.188Z,11.45
2023-05-16T15:08:03.539Z,11.13
2023-05-16T15:10:41.757Z,10.89
2023-05-16T15:13:40.286Z,11.20
2023-05-16T15:16:12.701Z,11.14
2023-05-16T15:19:02.821Z,11.12
2023-05-16T15:21:32.621Z,11.17
2023-05-16T15:24:04.507Z,10.90
2023-05-16T15:26:35.589Z,11.19
2023-05-16T15:29:04.149Z,11.12
2023-05-16T15:31:32.735Z,11.30
2023-05-16T15:34:02.408Z,11.23
2023-05-16T15:36:30.965Z,11.55
2023-05-16T15:39:02.239Z,11.42
2023-05-16T15:44:06.537Z,11.96
2023-05-16T15:46:35.074Z,12.19
2023-05-16T15:49:04.197Z,12.12
2023-05-16T15:51:32.264Z,12.16
2023-05-16T15:54:00.469Z,12.17
2023-05-16T15:56:33.643Z,11.84
2023-05-16T15:59:02.755Z,11.60
2023-05-16T16:01:32.027Z,11.27
2023-05-16T16:04:00.401Z,11.22
2023-05-16T16:06:39.277Z,10.93
2023-05-16T16:09:19.139Z,10.69
2023-05-16T16:11:56.086Z,10.45
2023-05-16T16:14:25.385Z,10.22
2023-05-16T16:16:53.461Z,10.37
2023-05-16T16:19:21.605Z,10.24
2023-05-16T16:21:49.751Z,10.25
2023-05-16T16:24:18.030Z,10.29
2023-05-16T16:26:49.210Z,10.35
2023-05-16T16:29:19.520Z,10.59
2023-05-16T16:31:48.760Z,10.78
2023-05-16T16:34:17.537Z,10.87
2023-05-16T16:36:46.721Z,11.08
2023-05-16T16:39:14.735Z,11.04
2023-05-16T16:41:43.123Z,10.97
2023-05-16T16:44:12.034Z,11.10
2023-05-16T16:46:42.012Z,11.33
2023-05-16T16:49:10.516Z,11.36
2023-05-16T16:51:38.622Z,11.30
2023-05-16T16:54:06.669Z,11.30
2023-05-16T16:56:34.889Z,11.50
2023-05-16T16:59:03.249Z,11.67
2023-05-16T17:01:32.798Z,11.90
2023-05-16T17:04:03.274Z,12.02
2023-05-16T17:06:31.343Z,11.93
2023-05-16T17:09:03.252Z,12.15
2023-05-16T17:11:31.813Z,12.08
2023-05-16T17:14:03.927Z,12.10
2023-05-16T17:16:32.781Z,12.19
2023-05-16T17:19:02.583Z,11.95
2023-05-16T17:21:31.239Z,11.94
2023-05-16T17:23:59.345Z,11.93
2023-05-16T17:26:30.926Z,12.13
2023-05-16T17:29:00.933Z,11.90
2023-05-16T17:31:30.062Z,11.69
2023-05-16T17:34:00.825Z,11.88
2023-05-16T17:36:31.055Z,11.71
2023-05-16T17:38:59.772Z,11.93
2023-05-16T17:41:29.243Z,11.85
2023-05-16T17:43:57.249Z,11.76
2023-05-16T17:46:25.274Z,11.84
2023-05-16T17:48:53.337Z,11.84
2023-05-16T17:51:21.748Z,11.76
2023-05-16T17:53:51.491Z,11.62
2023-05-16T17:56:21.381Z,11.55
2023-05-16T17:58:50.594Z,11.63
2023-05-16T18:01:19.849Z,11.57
2023-05-16T18:03:47.975Z,11.47
2023-05-16T18:06:16.474Z,11.56
2023-05-16T18:08:47.476Z,11.60
2023-05-16T18:11:16.958Z,11.57
2023-05-16T18:13:46.056Z,11.54
2023-05-16T18:16:14.181Z,11.48
2023-05-16T18:18:44.030Z,11.41
2023-05-16T18:21:12.458Z,11.47
2023-05-16T18:23:40.491Z,11.34
2023-05-16T18:26:10.050Z,11.33
2023-05-16T18:28:41.356Z,11.28
2023-05-16T18:31:09.737Z,11.25
2023-05-16T18:33:37.940Z,11.17
2023-05-16T18:36:06.615Z,11.13
2023-05-16T18:38:36.831Z,11.20
2023-05-16T18:41:05.105Z,11.09
2023-05-16T18:43:35.482Z,10.97
2023-05-16T18:46:06.240Z,11.02
2023-05-16T18:48:36.066Z,11.01
2023-05-16T18:51:04.664Z,10.98
2023-05-16T18:53:32.602Z,11.01
2023-05-16T18:56:00.640Z,10.95
2023-05-16T18:58:31.467Z,10.94
2023-05-16T19:01:04.848Z,10.94
2023-05-16T19:03:41.865Z,10.89
2023-05-16T19:06:11.591Z,10.80
2023-05-16T19:08:47.709Z,10.77
2023-05-16T19:11:17.302Z,10.72
2023-05-16T19:13:45.634Z,10.77
2023-05-16T19:16:15.041Z,10.73
2023-05-16T19:18:44.783Z,10.72
2023-05-16T19:21:13.889Z,10.72
2023-05-16T19:23:44.308Z,10.71
2023-05-16T19:26:12.459Z,10.71
2023-05-16T19:28:40.850Z,10.63
2023-05-16T19:31:09.421Z,10.60
2023-05-16T19:33:39.227Z,10.48
2023-05-16T19:36:11.233Z,10.32
2023-05-16T19:38:39.474Z,10.19
2023-05-16T19:41:09.910Z,10.15
2023-05-16T19:43:37.965Z,10.11
2023-05-16T19:46:08.426Z,9.89
2023-05-16T19:48:39.580Z,9.92
2023-05-16T19:51:11.140Z,9.70
2023-05-16T19:53:42.059Z,9.71
2023-05-16T19:56:10.729Z,9.65
2023-05-16T19:58:49.879Z,9.57
2023-05-16T20:01:18.019Z,9.44
2023-05-16T20:03:46.618Z,9.45
2023-05-16T20:06:24.585Z,9.20
2023-05-16T20:08:58.684Z,9.11
2023-05-16T20:11:37.762Z,9.08
2023-05-16T20:14:19.793Z,9.20
2023-05-16T20:16:48.939Z,9.21
2023-05-16T20:19:20.208Z,9.08
2023-05-16T20:21:50.963Z,9.03
2023-05-16T20:24:19.294Z,9.02
2023-05-16T20:26:49.740Z,8.93
2023-05-16T20:29:25.915Z,8.99
2023-05-16T20:31:56.305Z,8.99
2023-05-16T20:34:26.177Z,9.04
2023-05-16T20:36:55.728Z,8.97
2023-05-16T20:39:23.824Z,8.94
2023-05-16T20:41:51.863Z,8.92
2023-05-16T20:44:20.146Z,8.84
2023-05-16T20:46:48.462Z,9.01
2023-05-16T20:49:18.462Z,9.11
2023-05-16T20:51:49.123Z,9.11
2023-05-16T20:54:18.972Z,9.10
2023-05-16T20:56:49.139Z,9.25
2023-05-16T20:59:17.694Z,9.19
2023-05-16T21:01:46.420Z,9.15
2023-05-16T21:04:15.900Z,9.34
2023-05-16T21:06:44.055Z,9.31
2023-05-16T21:09:13.367Z,9.39
2023-05-16T21:11:42.839Z,9.41
2023-05-16T21:14:13.692Z,9.24
2023-05-16T21:16:41.943Z,9.47
2023-05-16T21:19:10.279Z,9.42
2023-05-16T21:21:38.687Z,9.50
2023-05-16T21:24:12.100Z,9.42
2023-05-16T21:26:42.466Z,9.56
2023-05-16T21:29:10.968Z,9.51
2023-05-16T21:31:38.952Z,9.56
2023-05-16T21:34:08.494Z,9.59
2023-05-16T21:36:36.928Z,9.60
2023-05-16T21:39:05.172Z,9.62
2023-05-16T21:41:34.244Z,9.47
2023-05-16T21:44:03.688Z,9.42
2023-05-16T21:46:31.761Z,9.35
2023-05-16T21:49:00.129Z,9.32
2023-05-16T21:51:28.325Z,9.26
2023-05-16T21:53:56.435Z,9.09
2023-05-16T21:56:26.254Z,9.29
2023-05-16T21:58:55.266Z,9.26
2023-05-16T22:01:25.323Z,9.25
2023-05-16T22:03:53.511Z,9.17
2023-05-16T22:06:22.789Z,9.05
2023-05-16T22:08:53.273Z,8.89
2023-05-16T22:11:22.232Z,8.86
2023-05-16T22:13:51.244Z,8.90
2023-05-16T22:16:19.620Z,8.97
2023-05-16T22:18:49.633Z,9.00
2023-05-16T22:21:17.796Z,9.01
2023-05-16T22:23:46.550Z,9.05
2023-05-16T22:26:14.825Z,9.12
2023-05-16T22:28:46.105Z,9.11
2023-05-16T22:31:15.012Z,9.24
2023-05-16T22:33:43.304Z,9.20
2023-05-16T22:36:13.035Z,9.30
2023-05-16T22:38:41.058Z,9.30
2023-05-16T22:41:09.086Z,9.32
2023-05-16T22:43:37.946Z,9.35
2023-05-16T22:46:05.917Z,9.32
2023-05-16T22:48:34.151Z,9.26
2023-05-16T22:51:04.476Z,9.19
2023-05-16T22:53:33.919Z,9.17
2023-05-16T22:56:01.772Z,9.16
2023-05-16T22:58:29.722Z,9.12
2023-05-16T23:00:58.345Z,9.12
2023-05-16T23:03:27.713Z,9.03
2023-05-16T23:05:55.842Z,9.07
2023-05-16T23:08:23.860Z,8.98
2023-05-16T23:10:53.347Z,8.89
2023-05-16T23:13:21.397Z,8.94
2023-05-16T23:15:49.552Z,9.00
2023-05-16T23:18:17.621Z,9.05
2023-05-16T23:20:46.650Z,9.09
2023-05-16T23:23:14.738Z,9.16
2023-05-16T23:25:45.488Z,9.25
2023-05-16T23:28:15.041Z,9.34
2023-05-16T23:30:43.104Z,9.38
2023-05-16T23:33:13.195Z,9.50
2023-05-16T23:35:43.991Z,9.52
2023-05-16T23:38:11.965Z,9.49
2023-05-16T23:40:40.071Z,9.39
2023-05-16T23:43:08.379Z,9.16
2023-05-16T23:45:41.171Z,9.06
2023-05-16T23:48:09.314Z,8.84
2023-05-16T23:50:39.749Z,8.84
2023-05-16T23:53:07.782Z,8.75
2023-05-16T23:55:35.853Z,8.52
2023-05-16T23:58:03.823Z,8.35
